sensor_id;sensor_type;location;lat;lon;timestamp;P1;durP1;ratioP1;P2;durP2;ratioP2
39214;SDS011;24932;51.746;14.334;2023-08-20T00:00:40;16.15;;;14.32;;
39214;SDS011;24932;51.746;14.334;2023-08-20T00:04:40;15.55;;;14.07;;
39214;SDS011;24932;51.746;14.334;2023-08-20T00:08:40;17.23;;;14.32;;
39214;SDS011;24932;51.746;14.334;2023-08-20T00:12:40;19.45;;;13.75;;
39214;SDS011;24932;51.746;14.334;2023-08-20T00:16:40;17.6;;;13.88;;
39214;SDS011;24932;51.746;14.334;2023-08-20T00:20:40;16.6;;;14.9;;
39214;SDS011;24932;51.746;14.334;2023-08-20T00:24:40;15.48;;;13.3;;
39214;SDS011;24932;51.746;14.334;2023-08-20T00:28:40;16.23;;;14.05;;
39214;SDS011;24932;51.746;14.334;2023-08-20T00:32:40;17.0;;;13.88;;
39214;SDS011;24932;51.746;14.334;2023-08-20T00:36:40;18.4;;;14.8;;
39214;SDS011;24932;51.746;14.334;2023-08-20T00:40:41;17.95;;;14.77;;
39214;SDS011;24932;51.746;14.334;2023-08-20T00:44:40;17.62;;;13.6;;
39214;SDS011;24932;51.746;14.334;2023-08-20T00:48:41;14.8;;;12.57;;
39214;SDS011;24932;51.746;14.334;2023-08-20T00:52:40;15.68;;;14.18;;
39214;SDS011;24932;51.746;14.334;2023-08-20T00:56:40;14.45;;;13.15;;
39214;SDS011;24932;51.746;14.334;2023-08-20T01:00:40;16.12;;;14.52;;
39214;SDS011;24932;51.746;14.334;2023-08-20T01:04:41;15.82;;;14.18;;
39214;SDS011;24932;51.746;14.334;2023-08-20T01:08:40;14.35;;;12.95;;
39214;SDS011;24932;51.746;14.334;2023-08-20T01:12:41;16.65;;;14.7;;
39214;SDS011;24932;51.746;14.334;2023-08-20T01:16:40;19.37;;;15.88;;
39214;SDS011;24932;51.746;14.334;2023-08-20T01:20:41;17.85;;;14.2;;
39214;SDS011;24932;51.746;14.334;2023-08-20T01:24:44;16.25;;;14.55;;
39214;SDS011;24932;51.746;14.334;2023-08-20T01:28:40;16.98;;;15.38;;
39214;SDS011;24932;51.746;14.334;2023-08-20T01:32:40;18.52;;;15.25;;
39214;SDS011;24932;51.746;14.334;2023-08-20T01:36:40;18.4;;;15.48;;
39214;SDS011;24932;51.746;14.334;2023-08-20T01:40:40;15.35;;;13.75;;
39214;SDS011;24932;51.746;14.334;2023-08-20T01:44:40;19.05;;;15.6;;
39214;SDS011;24932;51.746;14.334;2023-08-20T01:48:40;15.38;;;13.8;;
39214;SDS011;24932;51.746;14.334;2023-08-20T01:52:41;15.18;;;13.68;;
39214;SDS011;24932;51.746;14.334;2023-08-20T01:56:40;16.5;;;14.8;;
39214;SDS011;24932;51.746;14.334;2023-08-20T02:00:40;16.73;;;14.2;;
39214;SDS011;24932;51.746;14.334;2023-08-20T02:04:40;17.83;;;15.95;;
39214;SDS011;24932;51.746;14.334;2023-08-20T02:08:40;15.4;;;13.9;;
39214;SDS011;24932;51.746;14.334;2023-08-20T02:12:40;16.35;;;14.63;;
39214;SDS011;24932;51.746;14.334;2023-08-20T02:16:40;16.95;;;14.77;;
39214;SDS011;24932;51.746;14.334;2023-08-20T02:20:42;16.52;;;14.2;;
39214;SDS011;24932;51.746;14.334;2023-08-20T02:24:40;15.8;;;14.4;;
39214;SDS011;24932;51.746;14.334;2023-08-20T02:28:40;16.1;;;14.0;;
39214;SDS011;24932;51.746;14.334;2023-08-20T02:32:40;17.25;;;15.5;;
39214;SDS011;24932;51.746;14.334;2023-08-20T02:36:40;15.63;;;14.02;;
39214;SDS011;24932;51.746;14.334;2023-08-20T02:40:41;21.95;;;14.52;;
39214;SDS011;24932;51.746;14.334;2023-08-20T02:44:40;17.12;;;15.2;;
39214;SDS011;24932;51.746;14.334;2023-08-20T02:48:39;16.08;;;14.35;;
39214;SDS011;24932;51.746;14.334;2023-08-20T02:52:41;19.85;;;14.05;;
39214;SDS011;24932;51.746;14.334;2023-08-20T02:56:41;15.75;;;13.88;;
39214;SDS011;24932;51.746;14.334;2023-08-20T03:00:40;16.42;;;14.77;;
39214;SDS011;24932;51.746;14.334;2023-08-20T03:04:40;16.45;;;14.8;;
39214;SDS011;24932;51.746;14.334;2023-08-20T03:08:40;15.73;;;14.23;;
39214;SDS011;24932;51.746;14.334;2023-08-20T03:12:40;18.23;;;14.48;;
39214;SDS011;24932;51.746;14.334;2023-08-20T03:16:40;14.63;;;13.32;;
39214;SDS011;24932;51.746;14.334;2023-08-20T03:20:40;17.23;;;15.0;;
39214;SDS011;24932;51.746;14.334;2023-08-20T03:24:41;16.27;;;14.7;;
39214;SDS011;24932;51.746;14.334;2023-08-20T03:28:40;25.45;;;14.98;;
39214;SDS011;24932;51.746;14.334;2023-08-20T03:32:40;17.9;;;16.2;;
39214;SDS011;24932;51.746;14.334;2023-08-20T03:36:40;17.92;;;16.1;;
39214;SDS011;24932;51.746;14.334;2023-08-20T03:40:40;20.37;;;16.02;;
39214;SDS011;24932;51.746;14.334;2023-08-20T03:44:40;17.23;;;15.45;;
39214;SDS011;24932;51.746;14.334;2023-08-20T03:48:40;18.33;;;16.45;;
39214;SDS011;24932;51.746;14.334;2023-08-20T03:52:39;18.5;;;16.48;;
39214;SDS011;24932;51.746;14.334;2023-08-20T03:56:40;18.35;;;16.4;;
39214;SDS011;24932;51.746;14.334;2023-08-20T04:00:40;19.58;;;17.58;;
39214;SDS011;24932;51.746;14.334;2023-08-20T04:04:40;25.3;;;16.95;;
39214;SDS011;24932;51.746;14.334;2023-08-20T04:08:41;20.8;;;16.8;;
39214;SDS011;24932;51.746;14.334;2023-08-20T04:12:40;19.92;;;17.75;;
39214;SDS011;24932;51.746;14.334;2023-08-20T04:16:40;19.1;;;16.95;;
39214;SDS011;24932;51.746;14.334;2023-08-20T04:20:40;22.9;;;18.08;;
39214;SDS011;24932;51.746;14.334;2023-08-20T04:24:40;20.35;;;17.12;;
39214;SDS011;24932;51.746;14.334;2023-08-20T04:28:41;21.48;;;17.92;;
39214;SDS011;24932;51.746;14.334;2023-08-20T04:32:40;20.0;;;17.9;;
39214;SDS011;24932;51.746;14.334;2023-08-20T04:36:40;20.58;;;18.08;;
39214;SDS011;24932;51.746;14.334;2023-08-20T04:40:40;20.2;;;17.45;;
39214;SDS011;24932;51.746;14.334;2023-08-20T04:44:40;22.3;;;19.1;;
39214;SDS011;24932;51.746;14.334;2023-08-20T04:48:41;20.73;;;18.67;;
39214;SDS011;24932;51.746;14.334;2023-08-20T04:52:40;20.23;;;17.85;;
39214;SDS011;24932;51.746;14.334;2023-08-20T04:56:40;21.87;;;16.45;;
39214;SDS011;24932;51.746;14.334;2023-08-20T05:00:40;19.52;;;16.77;;
39214;SDS011;24932;51.746;14.334;2023-08-20T05:04:41;19.1;;;16.3;;
39214;SDS011;24932;51.746;14.334;2023-08-20T05:08:40;17.87;;;16.17;;
39214;SDS011;24932;51.746;14.334;2023-08-20T05:12:41;18.17;;;15.05;;
39214;SDS011;24932;51.746;14.334;2023-08-20T05:16:41;18.58;;;13.98;;
39214;SDS011;24932;51.746;14.334;2023-08-20T05:20:40;16.15;;;13.77;;
39214;SDS011;24932;51.746;14.334;2023-08-20T05:24:40;14.68;;;13.07;;
39214;SDS011;24932;51.746;14.334;2023-08-20T05:28:40;13.7;;;12.35;;
39214;SDS011;24932;51.746;14.334;2023-08-20T05:32:40;14.23;;;12.85;;
39214;SDS011;24932;51.746;14.334;2023-08-20T05:36:43;17.0;;;12.75;;
39214;SDS011;24932;51.746;14.334;2023-08-20T05:40:40;17.52;;;12.77;;
39214;SDS011;24932;51.746;14.334;2023-08-20T05:44:41;16.48;;;12.4;;
39214;SDS011;24932;51.746;14.334;2023-08-20T05:48:40;13.65;;;12.18;;
39214;SDS011;24932;51.746;14.334;2023-08-20T05:52:40;15.65;;;12.75;;
39214;SDS011;24932;51.746;14.334;2023-08-20T05:56:40;15.15;;;12.23;;
39214;SDS011;24932;51.746;14.334;2023-08-20T06:00:40;13.6;;;12.15;;
39214;SDS011;24932;51.746;14.334;2023-08-20T06:04:40;20.48;;;12.63;;
39214;SDS011;24932;51.746;14.334;2023-08-20T06:08:47;13.62;;;12.05;;
39214;SDS011;24932;51.746;14.334;2023-08-20T06:12:40;12.18;;;10.82;;
39214;SDS011;24932;51.746;14.334;2023-08-20T06:16:40;11.93;;;10.35;;
39214;SDS011;24932;51.746;14.334;2023-08-20T06:20:41;11.35;;;10.15;;
39214;SDS011;24932;51.746;14.334;2023-08-20T06:24:40;12.05;;;10.73;;
39214;SDS011;24932;51.746;14.334;2023-08-20T06:28:40;12.85;;;10.15;;
39214;SDS011;24932;51.746;14.334;2023-08-20T06:32:41;11.32;;;10.23;;
39214;SDS011;24932;51.746;14.334;2023-08-20T06:36:40;14.77;;;10.88;;
39214;SDS011;24932;51.746;14.334;2023-08-20T06:40:40;10.9;;;9.55;;
39214;SDS011;24932;51.746;14.334;2023-08-20T06:44:40;10.38;;;9.38;;
39214;SDS011;24932;51.746;14.334;2023-08-20T06:48:40;14.43;;;10.27;;
39214;SDS011;24932;51.746;14.334;2023-08-20T06:52:39;12.05;;;10.57;;
39214;SDS011;24932;51.746;14.334;2023-08-20T06:56:40;11.25;;;10.25;;
39214;SDS011;24932;51.746;14.334;2023-08-20T07:00:40;14.25;;;11.23;;
39214;SDS011;24932;51.746;14.334;2023-08-20T07:04:41;16.05;;;10.8;;
39214;SDS011;24932;51.746;14.334;2023-08-20T07:08:41;15.18;;;11.32;;
39214;SDS011;24932;51.746;14.334;2023-08-20T07:12:40;15.4;;;11.3;;
39214;SDS011;24932;51.746;14.334;2023-08-20T07:16:40;12.45;;;10.25;;
39214;SDS011;24932;51.746;14.334;2023-08-20T07:20:41;14.35;;;11.18;;
39214;SDS011;24932;51.746;14.334;2023-08-20T07:24:40;14.98;;;11.07;;
39214;SDS011;24932;51.746;14.334;2023-08-20T07:28:40;12.25;;;10.9;;
39214;SDS011;24932;51.746;14.334;2023-08-20T07:32:39;12.57;;;11.27;;
39214;SDS011;24932;51.746;14.334;2023-08-20T07:36:40;12.05;;;10.52;;
39214;SDS011;24932;51.746;14.334;2023-08-20T07:40:40;11.18;;;10.05;;
39214;SDS011;24932;51.746;14.334;2023-08-20T07:44:40;13.57;;;10.4;;
39214;SDS011;24932;51.746;14.334;2023-08-20T07:48:41;13.88;;;10.6;;
39214;SDS011;24932;51.746;14.334;2023-08-20T07:52:40;14.3;;;10.2;;
39214;SDS011;24932;51.746;14.334;2023-08-20T07:56:40;13.68;;;9.63;;
39214;SDS011;24932;51.746;14.334;2023-08-20T08:00:40;10.13;;;9.1;;
39214;SDS011;24932;51.746;14.334;2023-08-20T08:04:43;11.88;;;10.2;;
39214;SDS011;24932;51.746;14.334;2023-08-20T08:08:42;13.5;;;9.43;;
39214;SDS011;24932;51.746;14.334;2023-08-20T08:12:40;12.13;;;10.25;;
39214;SDS011;24932;51.746;14.334;2023-08-20T08:16:40;11.43;;;10.38;;
39214;SDS011;24932;51.746;14.334;2023-08-20T08:20:41;11.0;;;9.85;;
39214;SDS011;24932;51.746;14.334;2023-08-20T08:24:41;12.98;;;10.07;;
39214;SDS011;24932;51.746;14.334;2023-08-20T08:28:40;10.75;;;9.73;;
39214;SDS011;24932;51.746;14.334;2023-08-20T08:32:41;16.6;;;10.1;;
39214;SDS011;24932;51.746;14.334;2023-08-20T08:36:40;11.95;;;9.27;;
39214;SDS011;24932;51.746;14.334;2023-08-20T08:40:40;10.1;;;9.07;;
39214;SDS011;24932;51.746;14.334;2023-08-20T08:44:40;15.65;;;10.1;;
39214;SDS011;24932;51.746;14.334;2023-08-20T08:48:41;10.55;;;9.55;;
39214;SDS011;24932;51.746;14.334;2023-08-20T08:52:41;10.18;;;9.18;;
39214;SDS011;24932;51.746;14.334;2023-08-20T08:56:40;9.73;;;8.82;;
39214;SDS011;24932;51.746;14.334;2023-08-20T09:00:40;10.75;;;8.3;;
39214;SDS011;24932;51.746;14.334;2023-08-20T09:04:40;13.07;;;9.48;;
39214;SDS011;24932;51.746;14.334;2023-08-20T09:08:40;10.57;;;8.8;;
39214;SDS011;24932;51.746;14.334;2023-08-20T09:12:41;15.95;;;9.65;;
39214;SDS011;24932;51.746;14.334;2023-08-20T09:16:40;12.8;;;8.65;;
39214;SDS011;24932;51.746;14.334;2023-08-20T09:20:40;12.1;;;8.63;;
39214;SDS011;24932;51.746;14.334;2023-08-20T09:24:41;10.05;;;8.35;;
39214;SDS011;24932;51.746;14.334;2023-08-20T09:28:41;10.95;;;8.5;;
39214;SDS011;24932;51.746;14.334;2023-08-20T09:32:40;10.05;;;7.97;;
39214;SDS011;24932;51.746;14.334;2023-08-20T09:36:40;11.0;;;7.93;;
39214;SDS011;24932;51.746;14.334;2023-08-20T09:40:40;9.85;;;8.0;;
39214;SDS011;24932;51.746;14.334;2023-08-20T09:44:40;10.75;;;7.95;;
39214;SDS011;24932;51.746;14.334;2023-08-20T09:48:40;11.95;;;8.13;;
39214;SDS011;24932;51.746;14.334;2023-08-20T09:52:44;11.88;;;8.0;;
39214;SDS011;24932;51.746;14.334;2023-08-20T09:56:40;11.52;;;8.3;;
39214;SDS011;24932;51.746;14.334;2023-08-20T10:00:40;8.4;;;7.05;;
39214;SDS011;24932;51.746;14.334;2023-08-20T10:04:41;10.82;;;8.35;;
39214;SDS011;24932;51.746;14.334;2023-08-20T10:08:41;10.93;;;8.18;;
39214;SDS011;24932;51.746;14.334;2023-08-20T10:12:39;12.7;;;7.47;;
39214;SDS011;24932;51.746;14.334;2023-08-20T10:16:40;12.68;;;8.18;;
39214;SDS011;24932;51.746;14.334;2023-08-20T10:20:40;8.73;;;7.78;;
39214;SDS011;24932;51.746;14.334;2023-08-20T10:24:41;12.45;;;7.72;;
39214;SDS011;24932;51.746;14.334;2023-08-20T10:28:40;9.4;;;8.45;;
39214;SDS011;24932;51.746;14.334;2023-08-20T10:32:45;9.9;;;7.6;;
39214;SDS011;24932;51.746;14.334;2023-08-20T10:36:41;10.6;;;7.95;;
39214;SDS011;24932;51.746;14.334;2023-08-20T10:40:49;9.9;;;8.0;;
39214;SDS011;24932;51.746;14.334;2023-08-20T10:44:56;9.48;;;8.1;;
39214;SDS011;24932;51.746;14.334;2023-08-20T10:48:41;12.65;;;8.05;;
39214;SDS011;24932;51.746;14.334;2023-08-20T10:52:41;10.07;;;8.32;;
39214;SDS011;24932;51.746;14.334;2023-08-20T10:56:41;10.95;;;8.9;;
39214;SDS011;24932;51.746;14.334;2023-08-20T11:00:41;10.23;;;9.2;;
39214;SDS011;24932;51.746;14.334;2023-08-20T11:04:40;10.98;;;9.1;;
39214;SDS011;24932;51.746;14.334;2023-08-20T11:08:41;11.48;;;9.35;;
39214;SDS011;24932;51.746;14.334;2023-08-20T11:12:40;12.88;;;9.55;;
39214;SDS011;24932;51.746;14.334;2023-08-20T11:16:41;10.2;;;8.77;;
39214;SDS011;24932;51.746;14.334;2023-08-20T11:20:41;10.7;;;9.18;;
39214;SDS011;24932;51.746;14.334;2023-08-20T11:24:42;10.25;;;8.25;;
39214;SDS011;24932;51.746;14.334;2023-08-20T11:28:44;11.5;;;8.77;;
39214;SDS011;24932;51.746;14.334;2023-08-20T11:32:40;11.68;;;7.4;;
39214;SDS011;24932;51.746;14.334;2023-08-20T11:36:41;8.73;;;7.4;;
39214;SDS011;24932;51.746;14.334;2023-08-20T11:40:40;9.85;;;7.57;;
39214;SDS011;24932;51.746;14.334;2023-08-20T11:44:42;10.48;;;7.43;;
39214;SDS011;24932;51.746;14.334;2023-08-20T11:48:57;12.37;;;7.93;;
39214;SDS011;24932;51.746;14.334;2023-08-20T11:52:41;9.52;;;6.7;;
39214;SDS011;24932;51.746;14.334;2023-08-20T11:56:43;7.93;;;7.1;;
39214;SDS011;24932;51.746;14.334;2023-08-20T12:00:40;8.25;;;7.32;;
39214;SDS011;24932;51.746;14.334;2023-08-20T12:04:40;8.9;;;8.0;;
39214;SDS011;24932;51.746;14.334;2023-08-20T12:08:40;9.13;;;7.03;;
39214;SDS011;24932;51.746;14.334;2023-08-20T12:12:40;7.32;;;6.68;;
39214;SDS011;24932;51.746;14.334;2023-08-20T12:16:40;8.7;;;6.25;;
39214;SDS011;24932;51.746;14.334;2023-08-20T12:20:40;7.85;;;6.12;;
39214;SDS011;24932;51.746;14.334;2023-08-20T12:24:42;8.02;;;6.37;;
39214;SDS011;24932;51.746;14.334;2023-08-20T12:28:40;8.48;;;5.72;;
39214;SDS011;24932;51.746;14.334;2023-08-20T12:32:41;11.05;;;5.8;;
39214;SDS011;24932;51.746;14.334;2023-08-20T12:36:40;4.97;;;4.37;;
39214;SDS011;24932;51.746;14.334;2023-08-20T12:40:40;9.6;;;4.6;;
39214;SDS011;24932;51.746;14.334;2023-08-20T12:44:40;4.57;;;2.55;;
39214;SDS011;24932;51.746;14.334;2023-08-20T12:48:40;6.82;;;2.97;;
39214;SDS011;24932;51.746;14.334;2023-08-20T12:52:40;6.28;;;4.68;;
39214;SDS011;24932;51.746;14.334;2023-08-20T12:56:40;6.72;;;5.1;;
39214;SDS011;24932;51.746;14.334;2023-08-20T13:00:41;6.85;;;4.2;;
39214;SDS011;24932;51.746;14.334;2023-08-20T13:04:44;5.28;;;4.28;;
39214;SDS011;24932;51.746;14.334;2023-08-20T13:08:40;5.93;;;4.0;;
39214;SDS011;24932;51.746;14.334;2023-08-20T13:12:40;5.72;;;4.6;;
39214;SDS011;24932;51.746;14.334;2023-08-20T13:16:41;6.25;;;4.45;;
39214;SDS011;24932;51.746;14.334;2023-08-20T13:20:44;7.7;;;4.5;;
39214;SDS011;24932;51.746;14.334;2023-08-20T13:24:40;6.05;;;4.1;;
39214;SDS011;24932;51.746;14.334;2023-08-20T13:28:40;6.53;;;4.07;;
39214;SDS011;24932;51.746;14.334;2023-08-20T13:32:41;4.68;;;4.25;;
39214;SDS011;24932;51.746;14.334;2023-08-20T13:36:40;6.05;;;4.62;;
39214;SDS011;24932;51.746;14.334;2023-08-20T13:40:41;4.93;;;4.12;;
39214;SDS011;24932;51.746;14.334;2023-08-20T13:44:40;4.87;;;4.4;;
39214;SDS011;24932;51.746;14.334;2023-08-20T13:48:40;8.13;;;5.03;;
39214;SDS011;24932;51.746;14.334;2023-08-20T13:52:40;5.45;;;4.25;;
39214;SDS011;24932;51.746;14.334;2023-08-20T13:56:40;5.8;;;4.6;;
39214;SDS011;24932;51.746;14.334;2023-08-20T14:00:41;4.97;;;4.53;;
39214;SDS011;24932;51.746;14.334;2023-08-20T14:04:39;4.97;;;4.0;;
39214;SDS011;24932;51.746;14.334;2023-08-20T14:08:40;4.1;;;3.75;;
39214;SDS011;24932;51.746;14.334;2023-08-20T14:12:41;6.8;;;3.85;;
39214;SDS011;24932;51.746;14.334;2023-08-20T14:16:40;8.43;;;4.7;;
39214;SDS011;24932;51.746;14.334;2023-08-20T14:20:40;4.22;;;3.75;;
39214;SDS011;24932;51.746;14.334;2023-08-20T14:24:40;4.07;;;3.67;;
39214;SDS011;24932;51.746;14.334;2023-08-20T14:28:40;3.7;;;3.35;;
39214;SDS011;24932;51.746;14.334;2023-08-20T14:32:42;3.92;;;3.22;;
39214;SDS011;24932;51.746;14.334;2023-08-20T14:36:40;5.55;;;3.7;;
39214;SDS011;24932;51.746;14.334;2023-08-20T14:40:40;3.42;;;3.12;;
39214;SDS011;24932;51.746;14.334;2023-08-20T14:44:39;6.55;;;3.9;;
39214;SDS011;24932;51.746;14.334;2023-08-20T14:48:40;4.78;;;3.2;;
39214;SDS011;24932;51.746;14.334;2023-08-20T14:52:40;5.18;;;3.22;;
39214;SDS011;24932;51.746;14.334;2023-08-20T14:56:40;3.42;;;3.12;;
39214;SDS011;24932;51.746;14.334;2023-08-20T15:00:41;3.12;;;2.83;;
39214;SDS011;24932;51.746;14.334;2023-08-20T15:04:41;4.15;;;3.1;;
39214;SDS011;24932;51.746;14.334;2023-08-20T15:08:40;3.8;;;3.37;;
39214;SDS011;24932;51.746;14.334;2023-08-20T15:12:40;5.85;;;2.78;;
39214;SDS011;24932;51.746;14.334;2023-08-20T15:16:41;4.45;;;3.22;;
39214;SDS011;24932;51.746;14.334;2023-08-20T15:20:40;3.97;;;2.87;;
39214;SDS011;24932;51.746;14.334;2023-08-20T15:24:41;3.47;;;3.1;;
39214;SDS011;24932;51.746;14.334;2023-08-20T15:28:40;4.85;;;3.0;;
39214;SDS011;24932;51.746;14.334;2023-08-20T15:32:40;3.87;;;3.15;;
39214;SDS011;24932;51.746;14.334;2023-08-20T15:36:40;5.47;;;3.45;;
39214;SDS011;24932;51.746;14.334;2023-08-20T15:40:40;3.78;;;3.33;;
39214;SDS011;24932;51.746;14.334;2023-08-20T15:44:40;5.0;;;3.47;;
39214;SDS011;24932;51.746;14.334;2023-08-20T15:48:40;4.68;;;3.05;;
39214;SDS011;24932;51.746;14.334;2023-08-20T15:52:40;7.37;;;3.4;;
39214;SDS011;24932;51.746;14.334;2023-08-20T15:56:41;3.83;;;3.3;;
39214;SDS011;24932;51.746;14.334;2023-08-20T16:00:40;4.12;;;3.08;;
39214;SDS011;24932;51.746;14.334;2023-08-20T16:04:39;4.45;;;3.6;;
39214;SDS011;24932;51.746;14.334;2023-08-20T16:08:40;3.47;;;3.17;;
39214;SDS011;24932;51.746;14.334;2023-08-20T16:12:40;5.93;;;3.37;;
39214;SDS011;24932;51.746;14.334;2023-08-20T16:16:40;4.07;;;3.72;;
39214;SDS011;24932;51.746;14.334;2023-08-20T16:20:40;3.6;;;3.3;;
39214;SDS011;24932;51.746;14.334;2023-08-20T16:24:40;3.35;;;3.05;;
39214;SDS011;24932;51.746;14.334;2023-08-20T16:28:41;5.1;;;3.35;;
39214;SDS011;24932;51.746;14.334;2023-08-20T16:32:40;4.8;;;3.42;;
39214;SDS011;24932;51.746;14.334;2023-08-20T16:36:40;6.72;;;3.7;;
39214;SDS011;24932;51.746;14.334;2023-08-20T16:40:40;5.1;;;3.12;;
39214;SDS011;24932;51.746;14.334;2023-08-20T16:44:40;7.2;;;3.78;;
39214;SDS011;24932;51.746;14.334;2023-08-20T16:48:40;4.05;;;3.65;;
39214;SDS011;24932;51.746;14.334;2023-08-20T16:52:41;4.12;;;3.72;;
39214;SDS011;24932;51.746;14.334;2023-08-20T16:56:40;5.68;;;3.87;;
39214;SDS011;24932;51.746;14.334;2023-08-20T17:00:40;3.92;;;3.62;;
39214;SDS011;24932;51.746;14.334;2023-08-20T17:04:40;4.93;;;4.35;;
39214;SDS011;24932;51.746;14.334;2023-08-20T17:08:40;4.53;;;3.53;;
39214;SDS011;24932;51.746;14.334;2023-08-20T17:12:41;11.65;;;4.0;;
39214;SDS011;24932;51.746;14.334;2023-08-20T17:16:41;8.43;;;4.0;;
39214;SDS011;24932;51.746;14.334;2023-08-20T17:20:40;5.3;;;4.62;;
39214;SDS011;24932;51.746;14.334;2023-08-20T17:24:41;7.9;;;4.0;;
39214;SDS011;24932;51.746;14.334;2023-08-20T17:28:40;5.8;;;4.25;;
39214;SDS011;24932;51.746;14.334;2023-08-20T17:32:40;7.07;;;4.3;;
39214;SDS011;24932;51.746;14.334;2023-08-20T17:36:40;5.9;;;4.07;;
39214;SDS011;24932;51.746;14.334;2023-08-20T17:40:40;6.55;;;4.68;;
39214;SDS011;24932;51.746;14.334;2023-08-20T17:44:40;3.2;;;2.83;;
39214;SDS011;24932;51.746;14.334;2023-08-20T17:48:40;5.47;;;3.45;;
39214;SDS011;24932;51.746;14.334;2023-08-20T17:52:40;3.12;;;2.7;;
39214;SDS011;24932;51.746;14.334;2023-08-20T17:56:40;5.15;;;2.72;;
39214;SDS011;24932;51.746;14.334;2023-08-20T18:00:43;5.6;;;3.28;;
39214;SDS011;24932;51.746;14.334;2023-08-20T18:04:41;6.0;;;3.17;;
39214;SDS011;24932;51.746;14.334;2023-08-20T18:08:40;3.75;;;3.08;;
39214;SDS011;24932;51.746;14.334;2023-08-20T18:12:40;6.55;;;3.0;;
39214;SDS011;24932;51.746;14.334;2023-08-20T18:16:40;4.75;;;3.4;;
39214;SDS011;24932;51.746;14.334;2023-08-20T18:20:41;6.43;;;2.85;;
39214;SDS011;24932;51.746;14.334;2023-08-20T18:24:40;4.18;;;3.03;;
39214;SDS011;24932;51.746;14.334;2023-08-20T18:28:42;5.07;;;3.22;;
39214;SDS011;24932;51.746;14.334;2023-08-20T18:32:40;3.1;;;2.9;;
39214;SDS011;24932;51.746;14.334;2023-08-20T18:36:40;5.35;;;2.72;;
39214;SDS011;24932;51.746;14.334;2023-08-20T18:40:40;4.65;;;3.03;;
39214;SDS011;24932;51.746;14.334;2023-08-20T18:44:40;12.98;;;3.45;;
39214;SDS011;24932;51.746;14.334;2023-08-20T18:48:39;4.85;;;3.55;;
39214;SDS011;24932;51.746;14.334;2023-08-20T18:52:41;4.53;;;3.0;;
39214;SDS011;24932;51.746;14.334;2023-08-20T18:56:41;4.12;;;2.95;;
39214;SDS011;24932;51.746;14.334;2023-08-20T19:00:40;5.1;;;2.78;;
39214;SDS011;24932;51.746;14.334;2023-08-20T19:04:41;5.4;;;2.85;;
39214;SDS011;24932;51.746;14.334;2023-08-20T19:08:40;3.9;;;2.67;;
39214;SDS011;24932;51.746;14.334;2023-08-20T19:12:40;7.55;;;2.62;;
39214;SDS011;24932;51.746;14.334;2023-08-20T19:16:40;3.65;;;3.25;;
39214;SDS011;24932;51.746;14.334;2023-08-20T19:20:44;4.2;;;2.97;;
39214;SDS011;24932;51.746;14.334;2023-08-20T19:24:40;4.05;;;2.75;;
39214;SDS011;24932;51.746;14.334;2023-08-20T19:28:40;9.55;;;3.22;;
39214;SDS011;24932;51.746;14.334;2023-08-20T19:32:41;3.45;;;2.47;;
39214;SDS011;24932;51.746;14.334;2023-08-20T19:36:40;6.45;;;2.97;;
39214;SDS011;24932;51.746;14.334;2023-08-20T19:40:40;8.1;;;3.83;;
39214;SDS011;24932;51.746;14.334;2023-08-20T19:44:40;5.28;;;2.67;;
39214;SDS011;24932;51.746;14.334;2023-08-20T19:48:40;5.55;;;2.9;;
39214;SDS011;24932;51.746;14.334;2023-08-20T19:52:40;2.95;;;2.28;;
39214;SDS011;24932;51.746;14.334;2023-08-20T19:56:40;4.78;;;2.83;;
39214;SDS011;24932;51.746;14.334;2023-08-20T20:00:40;7.03;;;2.1;;
39214;SDS011;24932;51.746;14.334;2023-08-20T20:04:40;3.35;;;2.37;;
39214;SDS011;24932;51.746;14.334;2023-08-20T20:08:40;5.2;;;2.35;;
39214;SDS011;24932;51.746;14.334;2023-08-20T20:12:41;2.65;;;2.0;;
39214;SDS011;24932;51.746;14.334;2023-08-20T20:16:40;3.2;;;2.12;;
39214;SDS011;24932;51.746;14.334;2023-08-20T20:20:40;6.6;;;2.4;;
39214;SDS011;24932;51.746;14.334;2023-08-20T20:24:40;2.03;;;1.83;;
39214;SDS011;24932;51.746;14.334;2023-08-20T20:28:40;2.47;;;2.17;;
39214;SDS011;24932;51.746;14.334;2023-08-20T20:32:41;2.85;;;1.8;;
39214;SDS011;24932;51.746;14.334;2023-08-20T20:36:40;2.67;;;1.8;;
39214;SDS011;24932;51.746;14.334;2023-08-20T20:40:41;2.55;;;1.62;;
39214;SDS011;24932;51.746;14.334;2023-08-20T20:44:40;2.92;;;1.8;;
39214;SDS011;24932;51.746;14.334;2023-08-20T20:48:40;4.05;;;1.85;;
39214;SDS011;24932;51.746;14.334;2023-08-20T20:52:41;6.53;;;1.65;;
39214;SDS011;24932;51.746;14.334;2023-08-20T20:56:40;2.25;;;1.67;;
39214;SDS011;24932;51.746;14.334;2023-08-20T21:00:40;4.18;;;2.08;;
39214;SDS011;24932;51.746;14.334;2023-08-20T21:04:40;3.15;;;2.42;;
39214;SDS011;24932;51.746;14.334;2023-08-20T21:08:41;2.83;;;1.87;;
39214;SDS011;24932;51.746;14.334;2023-08-20T21:12:41;5.12;;;1.8;;
39214;SDS011;24932;51.746;14.334;2023-08-20T21:16:40;4.65;;;1.75;;
39214;SDS011;24932;51.746;14.334;2023-08-20T21:20:40;3.15;;;1.83;;
39214;SDS011;24932;51.746;14.334;2023-08-20T21:24:40;6.22;;;1.8;;
39214;SDS011;24932;51.746;14.334;2023-08-20T21:28:41;4.1;;;1.75;;
39214;SDS011;24932;51.746;14.334;2023-08-20T21:32:41;4.8;;;1.55;;
39214;SDS011;24932;51.746;14.334;2023-08-20T21:36:40;5.47;;;2.17;;
39214;SDS011;24932;51.746;14.334;2023-08-20T21:40:40;2.47;;;1.75;;
39214;SDS011;24932;51.746;14.334;2023-08-20T21:44:40;6.32;;;1.73;;
39214;SDS011;24932;51.746;14.334;2023-08-20T21:48:40;4.97;;;1.67;;
39214;SDS011;24932;51.746;14.334;2023-08-20T21:52:40;2.8;;;1.98;;
39214;SDS011;24932;51.746;14.334;2023-08-20T21:56:40;5.32;;;2.05;;
39214;SDS011;24932;51.746;14.334;2023-08-20T22:04:40;3.05;;;1.5;;
39214;SDS011;24932;51.746;14.334;2023-08-20T22:08:40;5.5;;;2.1;;
39214;SDS011;24932;51.746;14.334;2023-08-20T22:12:40;3.47;;;1.83;;
39214;SDS011;24932;51.746;14.334;2023-08-20T22:16:50;3.42;;;1.7;;
39214;SDS011;24932;51.746;14.334;2023-08-20T22:20:41;3.8;;;1.75;;
39214;SDS011;24932;51.746;14.334;2023-08-20T22:24:41;2.95;;;2.0;;
39214;SDS011;24932;51.746;14.334;2023-08-20T22:28:40;7.15;;;2.12;;
39214;SDS011;24932;51.746;14.334;2023-08-20T22:32:40;4.87;;;2.1;;
39214;SDS011;24932;51.746;14.334;2023-08-20T22:36:40;6.32;;;2.15;;
39214;SDS011;24932;51.746;14.334;2023-08-20T22:40:40;2.75;;;2.2;;
39214;SDS011;24932;51.746;14.334;2023-08-20T22:44:41;5.2;;;2.33;;
39214;SDS011;24932;51.746;14.334;2023-08-20T22:48:40;3.85;;;2.4;;
39214;SDS011;24932;51.746;14.334;2023-08-20T22:52:41;3.5;;;2.5;;
39214;SDS011;24932;51.746;14.334;2023-08-20T22:56:39;3.83;;;2.28;;
39214;SDS011;24932;51.746;14.334;2023-08-20T23:00:41;7.7;;;3.22;;
39214;SDS011;24932;51.746;14.334;2023-08-20T23:04:43;5.45;;;2.7;;
39214;SDS011;24932;51.746;14.334;2023-08-20T23:08:40;7.7;;;3.08;;
39214;SDS011;24932;51.746;14.334;2023-08-20T23:12:41;4.68;;;3.12;;
39214;SDS011;24932;51.746;14.334;2023-08-20T23:16:40;5.97;;;3.33;;
39214;SDS011;24932;51.746;14.334;2023-08-20T23:20:39;4.35;;;3.3;;
39214;SDS011;24932;51.746;14.334;2023-08-20T23:24:41;5.62;;;3.08;;
39214;SDS011;24932;51.746;14.334;2023-08-20T23:28:40;8.68;;;3.33;;
39214;SDS011;24932;51.746;14.334;2023-08-20T23:32:41;7.35;;;3.42;;
39214;SDS011;24932;51.746;14.334;2023-08-20T23:36:40;4.25;;;3.6;;
39214;SDS011;24932;51.746;14.334;2023-08-20T23:40:40;3.87;;;3.5;;